<?xml version="1.0" encoding="UTF-8" standalone="no" ?><gpx xmlns="http://www.topografix.com/GPX/1/1" xmlns:gpxx="http://www.garmin.com/xmlschemas/GpxExtensions/v3" xmlns:wptx1="http://www.garmin.com/xmlschemas/WaypointExtension/v1" xmlns:gpxtpx="http://www.garmin.com/xmlschemas/TrackPointExtension/v1" creator="GuideVTT.com" version="1.1" xmlns:xsi="http://www.w3.org/2001/XMLSchema-instance" xsi:schemaLocation="http://www.topografix.com/GPX/1/1 http://www.topografix.com/GPX/1/1/gpx.xsd http://www.garmin.com/xmlschemas/GpxExtensions/v3 http://www8.garmin.com/xmlschemas/GpxExtensionsv3.xsd http://www.garmin.com/xmlschemas/WaypointExtension/v1 http://www8.garmin.com/xmlschemas/WaypointExtensionv1.xsd http://www.garmin.com/xmlschemas/TrackPointExtension/v1 http://www.garmin.com/xmlschemas/TrackPointExtensionv1.xsd">
<metadata><link href="http://www.garmin.com"><text>Garmin International</text></link><time>2013-06-22T15:13:50Z</time></metadata>
<trk><name>monte_mao.gpx</name><extensions><gpxx:TrackExtension><gpxx:DisplayColor>Cyan</gpxx:DisplayColor></gpxx:TrackExtension></extensions><trkseg>
<trkpt lat="44.1722301" lon="8.3596184"><ele></ele><time>2014-8-28T15:32:46Z</time></trkpt>
<trkpt lat="44.1723342" lon="8.3596408"><ele></ele><time>2014-8-28T15:32:49Z</time></trkpt>
<trkpt lat="44.1725658" lon="8.3578864"><ele></ele><time>2014-8-28T15:32:52Z</time></trkpt>
<trkpt lat="44.1727593" lon="8.3580713"><ele></ele><time>2014-8-28T15:32:55Z</time></trkpt>
<trkpt lat="44.1730556" lon="8.3581333"><ele></ele><time>2014-8-28T15:32:58Z</time></trkpt>
<trkpt lat="44.1733181" lon="8.3578671"><ele></ele><time>2014-8-28T15:33:1Z</time></trkpt>
<trkpt lat="44.1738127" lon="8.3576085"><ele></ele><time>2014-8-28T15:33:4Z</time></trkpt>
<trkpt lat="44.1741722" lon="8.3569544"><ele></ele><time>2014-8-28T15:33:7Z</time></trkpt>
<trkpt lat="44.1743286" lon="8.3568237"><ele></ele><time>2014-8-28T15:33:10Z</time></trkpt>
<trkpt lat="44.1744317" lon="8.3568428"><ele></ele><time>2014-8-28T15:33:13Z</time></trkpt>
<trkpt lat="44.1744768" lon="8.3571304"><ele></ele><time>2014-8-28T15:33:16Z</time></trkpt>
<trkpt lat="44.1742509" lon="8.3573610"><ele></ele><time>2014-8-28T15:33:19Z</time></trkpt>
<trkpt lat="44.1741732" lon="8.3577459"><ele></ele><time>2014-8-28T15:33:22Z</time></trkpt>
<trkpt lat="44.1742809" lon="8.3582794"><ele></ele><time>2014-8-28T15:33:25Z</time></trkpt>
<trkpt lat="44.1742300" lon="8.3585384"><ele></ele><time>2014-8-28T15:33:28Z</time></trkpt>
<trkpt lat="44.1739480" lon="8.3586797"><ele></ele><time>2014-8-28T15:33:31Z</time></trkpt>
<trkpt lat="44.1733641" lon="8.3594899"><ele></ele><time>2014-8-28T15:33:34Z</time></trkpt>
<trkpt lat="44.1731050" lon="8.3599454"><ele></ele><time>2014-8-28T15:33:37Z</time></trkpt>
<trkpt lat="44.1730175" lon="8.3602862"><ele></ele><time>2014-8-28T15:33:40Z</time></trkpt>
<trkpt lat="44.1729572" lon="8.3610353"><ele></ele><time>2014-8-28T15:33:43Z</time></trkpt>
<trkpt lat="44.1733163" lon="8.3626753"><ele></ele><time>2014-8-28T15:33:46Z</time></trkpt>
<trkpt lat="44.1735654" lon="8.3629857"><ele></ele><time>2014-8-28T15:33:49Z</time></trkpt>
<trkpt lat="44.1736058" lon="8.3635067"><ele></ele><time>2014-8-28T15:33:52Z</time></trkpt>
<trkpt lat="44.1742106" lon="8.3646675"><ele></ele><time>2014-8-28T15:33:55Z</time></trkpt>
<trkpt lat="44.1747648" lon="8.3648561"><ele></ele><time>2014-8-28T15:33:58Z</time></trkpt>
<trkpt lat="44.1748109" lon="8.3647512"><ele></ele><time>2014-8-28T15:34:1Z</time></trkpt>
<trkpt lat="44.1747350" lon="8.3645665"><ele></ele><time>2014-8-28T15:34:4Z</time></trkpt>
<trkpt lat="44.1742349" lon="8.3636596"><ele></ele><time>2014-8-28T15:34:7Z</time></trkpt>
<trkpt lat="44.1740054" lon="8.3633487"><ele></ele><time>2014-8-28T15:34:10Z</time></trkpt>
<trkpt lat="44.1738809" lon="8.3625181"><ele></ele><time>2014-8-28T15:34:13Z</time></trkpt>
<trkpt lat="44.1737650" lon="8.3621566"><ele></ele><time>2014-8-28T15:34:16Z</time></trkpt>
<trkpt lat="44.1738800" lon="8.3619111"><ele></ele><time>2014-8-28T15:34:19Z</time></trkpt>
<trkpt lat="44.1739205" lon="8.3619664"><ele></ele><time>2014-8-28T15:34:22Z</time></trkpt>
<trkpt lat="44.1738955" lon="8.3621759"><ele></ele><time>2014-8-28T15:34:25Z</time></trkpt>
<trkpt lat="44.1741761" lon="8.3629213"><ele></ele><time>2014-8-28T15:34:28Z</time></trkpt>
<trkpt lat="44.1744489" lon="8.3630312"><ele></ele><time>2014-8-28T15:34:31Z</time></trkpt>
<trkpt lat="44.1745991" lon="8.3629819"><ele></ele><time>2014-8-28T15:34:34Z</time></trkpt>
<trkpt lat="44.1745275" lon="8.3628493"><ele></ele><time>2014-8-28T15:34:37Z</time></trkpt>
<trkpt lat="44.1743741" lon="8.3628627"><ele></ele><time>2014-8-28T15:34:40Z</time></trkpt>
<trkpt lat="44.1744734" lon="8.3628022"><ele></ele><time>2014-8-28T15:34:43Z</time></trkpt>
<trkpt lat="44.1749783" lon="8.3628370"><ele></ele><time>2014-8-28T15:34:46Z</time></trkpt>
<trkpt lat="44.1753139" lon="8.3633514"><ele></ele><time>2014-8-28T15:34:49Z</time></trkpt>
<trkpt lat="44.1757939" lon="8.3647145"><ele></ele><time>2014-8-28T15:34:52Z</time></trkpt>
<trkpt lat="44.1762991" lon="8.3653708"><ele></ele><time>2014-8-28T15:34:55Z</time></trkpt>
<trkpt lat="44.1764298" lon="8.3654791"><ele></ele><time>2014-8-28T15:34:58Z</time></trkpt>
<trkpt lat="44.1780037" lon="8.3660283"><ele></ele><time>2014-8-28T15:35:1Z</time></trkpt>
<trkpt lat="44.1783207" lon="8.3662801"><ele></ele><time>2014-8-28T15:35:4Z</time></trkpt>
<trkpt lat="44.1790846" lon="8.3671600"><ele></ele><time>2014-8-28T15:35:7Z</time></trkpt>
<trkpt lat="44.1795280" lon="8.3679585"><ele></ele><time>2014-8-28T15:35:10Z</time></trkpt>
<trkpt lat="44.1798309" lon="8.3681661"><ele></ele><time>2014-8-28T15:35:13Z</time></trkpt>
<trkpt lat="44.1800881" lon="8.3680165"><ele></ele><time>2014-8-28T15:35:16Z</time></trkpt>
<trkpt lat="44.1803426" lon="8.3681209"><ele></ele><time>2014-8-28T15:35:19Z</time></trkpt>
<trkpt lat="44.1807540" lon="8.3694948"><ele></ele><time>2014-8-28T15:35:22Z</time></trkpt>
<trkpt lat="44.1810833" lon="8.3698451"><ele></ele><time>2014-8-28T15:35:25Z</time></trkpt>
<trkpt lat="44.1812801" lon="8.3702656"><ele></ele><time>2014-8-28T15:35:28Z</time></trkpt>
<trkpt lat="44.1813077" lon="8.3707247"><ele></ele><time>2014-8-28T15:35:31Z</time></trkpt>
<trkpt lat="44.1815243" lon="8.3709976"><ele></ele><time>2014-8-28T15:35:34Z</time></trkpt>
<trkpt lat="44.1815569" lon="8.3708345"><ele></ele><time>2014-8-28T15:35:37Z</time></trkpt>
<trkpt lat="44.1814253" lon="8.3698677"><ele></ele><time>2014-8-28T15:35:40Z</time></trkpt>
<trkpt lat="44.1810895" lon="8.3691918"><ele></ele><time>2014-8-28T15:35:43Z</time></trkpt>
<trkpt lat="44.1810539" lon="8.3688541"><ele></ele><time>2014-8-28T15:35:46Z</time></trkpt>
<trkpt lat="44.1811627" lon="8.3677409"><ele></ele><time>2014-8-28T15:35:49Z</time></trkpt>
<trkpt lat="44.1810776" lon="8.3673395"><ele></ele><time>2014-8-28T15:35:52Z</time></trkpt>
<trkpt lat="44.1809208" lon="8.3671094"><ele></ele><time>2014-8-28T15:35:55Z</time></trkpt>
<trkpt lat="44.1806150" lon="8.3669908"><ele></ele><time>2014-8-28T15:35:58Z</time></trkpt>
<trkpt lat="44.1804668" lon="8.3667281"><ele></ele><time>2014-8-28T15:36:1Z</time></trkpt>
<trkpt lat="44.1805003" lon="8.3662801"><ele></ele><time>2014-8-28T15:36:4Z</time></trkpt>
<trkpt lat="44.1801563" lon="8.3653410"><ele></ele><time>2014-8-28T15:36:7Z</time></trkpt>
<trkpt lat="44.1802401" lon="8.3652907"><ele></ele><time>2014-8-28T15:36:10Z</time></trkpt>
<trkpt lat="44.1811508" lon="8.3662879"><ele></ele><time>2014-8-28T15:36:13Z</time></trkpt>
<trkpt lat="44.1817921" lon="8.3665558"><ele></ele><time>2014-8-28T15:36:16Z</time></trkpt>
<trkpt lat="44.1825644" lon="8.3666984"><ele></ele><time>2014-8-28T15:36:19Z</time></trkpt>
<trkpt lat="44.1829239" lon="8.3665878"><ele></ele><time>2014-8-28T15:36:22Z</time></trkpt>
<trkpt lat="44.1833461" lon="8.3662702"><ele></ele><time>2014-8-28T15:36:25Z</time></trkpt>
<trkpt lat="44.1835585" lon="8.3664184"><ele></ele><time>2014-8-28T15:36:28Z</time></trkpt>
<trkpt lat="44.1835796" lon="8.3668385"><ele></ele><time>2014-8-28T15:36:31Z</time></trkpt>
<trkpt lat="44.1840133" lon="8.3673949"><ele></ele><time>2014-8-28T15:36:34Z</time></trkpt>
<trkpt lat="44.1839667" lon="8.3675403"><ele></ele><time>2014-8-28T15:36:37Z</time></trkpt>
<trkpt lat="44.1836816" lon="8.3679114"><ele></ele><time>2014-8-28T15:36:40Z</time></trkpt>
<trkpt lat="44.1837007" lon="8.3684629"><ele></ele><time>2014-8-28T15:36:43Z</time></trkpt>
<trkpt lat="44.1845439" lon="8.3698554"><ele></ele><time>2014-8-28T15:36:46Z</time></trkpt>
<trkpt lat="44.1849463" lon="8.3703266"><ele></ele><time>2014-8-28T15:36:49Z</time></trkpt>
<trkpt lat="44.1851302" lon="8.3707366"><ele></ele><time>2014-8-28T15:36:52Z</time></trkpt>
<trkpt lat="44.1850111" lon="8.3716906"><ele></ele><time>2014-8-28T15:36:55Z</time></trkpt>
<trkpt lat="44.1851156" lon="8.3719324"><ele></ele><time>2014-8-28T15:36:58Z</time></trkpt>
<trkpt lat="44.1851400" lon="8.3719191"><ele></ele><time>2014-8-28T15:37:1Z</time></trkpt>
<trkpt lat="44.1849510" lon="8.3725641"><ele></ele><time>2014-8-28T15:37:4Z</time></trkpt>
<trkpt lat="44.1849078" lon="8.3734628"><ele></ele><time>2014-8-28T15:37:7Z</time></trkpt>
<trkpt lat="44.1847650" lon="8.3742761"><ele></ele><time>2014-8-28T15:37:10Z</time></trkpt>
<trkpt lat="44.1848516" lon="8.3744916"><ele></ele><time>2014-8-28T15:37:13Z</time></trkpt>
<trkpt lat="44.1850835" lon="8.3746905"><ele></ele><time>2014-8-28T15:37:16Z</time></trkpt>
<trkpt lat="44.1854109" lon="8.3738454"><ele></ele><time>2014-8-28T15:37:19Z</time></trkpt>
<trkpt lat="44.1856112" lon="8.3735789"><ele></ele><time>2014-8-28T15:37:22Z</time></trkpt>
<trkpt lat="44.1857071" lon="8.3729182"><ele></ele><time>2014-8-28T15:37:25Z</time></trkpt>
<trkpt lat="44.1861792" lon="8.3721056"><ele></ele><time>2014-8-28T15:37:28Z</time></trkpt>
<trkpt lat="44.1866831" lon="8.3714527"><ele></ele><time>2014-8-28T15:37:31Z</time></trkpt>
<trkpt lat="44.1870648" lon="8.3718162"><ele></ele><time>2014-8-28T15:37:34Z</time></trkpt>
<trkpt lat="44.1871295" lon="8.3721729"><ele></ele><time>2014-8-28T15:37:37Z</time></trkpt>
<trkpt lat="44.1880098" lon="8.3729282"><ele></ele><time>2014-8-28T15:37:40Z</time></trkpt>
<trkpt lat="44.1881433" lon="8.3732018"><ele></ele><time>2014-8-28T15:37:43Z</time></trkpt>
<trkpt lat="44.1881673" lon="8.3735136"><ele></ele><time>2014-8-28T15:37:46Z</time></trkpt>
<trkpt lat="44.1880204" lon="8.3742363"><ele></ele><time>2014-8-28T15:37:49Z</time></trkpt>
<trkpt lat="44.1880724" lon="8.3745482"><ele></ele><time>2014-8-28T15:37:52Z</time></trkpt>
<trkpt lat="44.1883698" lon="8.3749537"><ele></ele><time>2014-8-28T15:37:55Z</time></trkpt>
<trkpt lat="44.1892395" lon="8.3754763"><ele></ele><time>2014-8-28T15:37:58Z</time></trkpt>
<trkpt lat="44.1893854" lon="8.3757548"><ele></ele><time>2014-8-28T15:38:1Z</time></trkpt>
<trkpt lat="44.1893917" lon="8.3763918"><ele></ele><time>2014-8-28T15:38:4Z</time></trkpt>
<trkpt lat="44.1896078" lon="8.3773213"><ele></ele><time>2014-8-28T15:38:7Z</time></trkpt>
<trkpt lat="44.1899729" lon="8.3784845"><ele></ele><time>2014-8-28T15:38:10Z</time></trkpt>
<trkpt lat="44.1902676" lon="8.3788512"><ele></ele><time>2014-8-28T15:38:13Z</time></trkpt>
<trkpt lat="44.1906535" lon="8.3790158"><ele></ele><time>2014-8-28T15:38:16Z</time></trkpt>
<trkpt lat="44.1906781" lon="8.3791801"><ele></ele><time>2014-8-28T15:38:19Z</time></trkpt>
<trkpt lat="44.1909755" lon="8.3796277"><ele></ele><time>2014-8-28T15:38:22Z</time></trkpt>
<trkpt lat="44.1910557" lon="8.3800813"><ele></ele><time>2014-8-28T15:38:25Z</time></trkpt>
<trkpt lat="44.1909791" lon="8.3807247"><ele></ele><time>2014-8-28T15:38:28Z</time></trkpt>
<trkpt lat="44.1913463" lon="8.3807211"><ele></ele><time>2014-8-28T15:38:31Z</time></trkpt>
<trkpt lat="44.1916665" lon="8.3804766"><ele></ele><time>2014-8-28T15:38:34Z</time></trkpt>
<trkpt lat="44.1919569" lon="8.3805853"><ele></ele><time>2014-8-28T15:38:37Z</time></trkpt>
<trkpt lat="44.1922995" lon="8.3808874"><ele></ele><time>2014-8-28T15:38:40Z</time></trkpt>
<trkpt lat="44.1927491" lon="8.3808274"><ele></ele><time>2014-8-28T15:38:43Z</time></trkpt>
<trkpt lat="44.1928169" lon="8.3811770"><ele></ele><time>2014-8-28T15:38:46Z</time></trkpt>
<trkpt lat="44.1928147" lon="8.3814367"><ele></ele><time>2014-8-28T15:38:49Z</time></trkpt>
<trkpt lat="44.1927709" lon="8.3814236"><ele></ele><time>2014-8-28T15:38:52Z</time></trkpt>
<trkpt lat="44.1928246" lon="8.3814640"><ele></ele><time>2014-8-28T15:38:55Z</time></trkpt>
<trkpt lat="44.1925810" lon="8.3823919"><ele></ele><time>2014-8-28T15:38:58Z</time></trkpt>
<trkpt lat="44.1919618" lon="8.3836679"><ele></ele><time>2014-8-28T15:39:1Z</time></trkpt>
<trkpt lat="44.1920996" lon="8.3834941"><ele></ele><time>2014-8-28T15:39:4Z</time></trkpt>
<trkpt lat="44.1921289" lon="8.3836413"><ele></ele><time>2014-8-28T15:39:7Z</time></trkpt>
<trkpt lat="44.1920866" lon="8.3842172"><ele></ele><time>2014-8-28T15:39:10Z</time></trkpt>
<trkpt lat="44.1921005" lon="8.3845550"><ele></ele><time>2014-8-28T15:39:13Z</time></trkpt>
<trkpt lat="44.1925684" lon="8.3841572"><ele></ele><time>2014-8-28T15:39:16Z</time></trkpt>
<trkpt lat="44.1932100" lon="8.3842864"><ele></ele><time>2014-8-28T15:39:19Z</time></trkpt>
<trkpt lat="44.1933483" lon="8.3841742"><ele></ele><time>2014-8-28T15:39:22Z</time></trkpt>
<trkpt lat="44.1936391" lon="8.3842697"><ele></ele><time>2014-8-28T15:39:25Z</time></trkpt>
<trkpt lat="44.1937674" lon="8.3842284"><ele></ele><time>2014-8-28T15:39:28Z</time></trkpt>
<trkpt lat="44.1943615" lon="8.3845605"><ele></ele><time>2014-8-28T15:39:31Z</time></trkpt>
<trkpt lat="44.1944636" lon="8.3848461"><ele></ele><time>2014-8-28T15:39:34Z</time></trkpt>
<trkpt lat="44.1945672" lon="8.3861573"><ele></ele><time>2014-8-28T15:39:37Z</time></trkpt>
<trkpt lat="44.1947118" lon="8.3866120"><ele></ele><time>2014-8-28T15:39:40Z</time></trkpt>
<trkpt lat="44.1955134" lon="8.3876662"><ele></ele><time>2014-8-28T15:39:43Z</time></trkpt>
<trkpt lat="44.1959073" lon="8.3878763"><ele></ele><time>2014-8-28T15:39:46Z</time></trkpt>
<trkpt lat="44.1966130" lon="8.3887325"><ele></ele><time>2014-8-28T15:39:49Z</time></trkpt>
<trkpt lat="44.1972769" lon="8.3889379"><ele></ele><time>2014-8-28T15:39:52Z</time></trkpt>
<trkpt lat="44.1993636" lon="8.3903474"><ele></ele><time>2014-8-28T15:39:55Z</time></trkpt>
<trkpt lat="44.2001230" lon="8.3907519"><ele></ele><time>2014-8-28T15:39:58Z</time></trkpt>
<trkpt lat="44.2013655" lon="8.3909353"><ele></ele><time>2014-8-28T15:40:1Z</time></trkpt>
<trkpt lat="44.2020262" lon="8.3907543"><ele></ele><time>2014-8-28T15:40:4Z</time></trkpt>
<trkpt lat="44.2019961" lon="8.3903330"><ele></ele><time>2014-8-28T15:40:7Z</time></trkpt>
<trkpt lat="44.2021448" lon="8.3902726"><ele></ele><time>2014-8-28T15:40:10Z</time></trkpt>
<trkpt lat="44.2023895" lon="8.3899885"><ele></ele><time>2014-8-28T15:40:13Z</time></trkpt>
<trkpt lat="44.2025358" lon="8.3899185"><ele></ele><time>2014-8-28T15:40:16Z</time></trkpt>
<trkpt lat="44.2028638" lon="8.3894351"><ele></ele><time>2014-8-28T15:40:19Z</time></trkpt>
<trkpt lat="44.2029733" lon="8.3890877"><ele></ele><time>2014-8-28T15:40:22Z</time></trkpt>
<trkpt lat="44.2032109" lon="8.3887149"><ele></ele><time>2014-8-28T15:40:25Z</time></trkpt>
<trkpt lat="44.2034028" lon="8.3882293"><ele></ele><time>2014-8-28T15:40:28Z</time></trkpt>
<trkpt lat="44.2036722" lon="8.3880003"><ele></ele><time>2014-8-28T15:40:31Z</time></trkpt>
<trkpt lat="44.2039256" lon="8.3879586"><ele></ele><time>2014-8-28T15:40:34Z</time></trkpt>
<trkpt lat="44.2045026" lon="8.3875979"><ele></ele><time>2014-8-28T15:40:37Z</time></trkpt>
<trkpt lat="44.2048885" lon="8.3874474"><ele></ele><time>2014-8-28T15:40:40Z</time></trkpt>
<trkpt lat="44.2049388" lon="8.3869770"><ele></ele><time>2014-8-28T15:40:43Z</time></trkpt>
<trkpt lat="44.2051367" lon="8.3869124"><ele></ele><time>2014-8-28T15:40:46Z</time></trkpt>
<trkpt lat="44.2058603" lon="8.3864088"><ele></ele><time>2014-8-28T15:40:49Z</time></trkpt>
<trkpt lat="44.2060368" lon="8.3863710"><ele></ele><time>2014-8-28T15:40:52Z</time></trkpt>
<trkpt lat="44.2063801" lon="8.3861212"><ele></ele><time>2014-8-28T15:40:55Z</time></trkpt>
<trkpt lat="44.2066332" lon="8.3860541"><ele></ele><time>2014-8-28T15:40:58Z</time></trkpt>
<trkpt lat="44.2068663" lon="8.3861555"><ele></ele><time>2014-8-28T15:41:1Z</time></trkpt>
<trkpt lat="44.2074160" lon="8.3862005"><ele></ele><time>2014-8-28T15:41:4Z</time></trkpt>
<trkpt lat="44.2079095" lon="8.3864341"><ele></ele><time>2014-8-28T15:41:7Z</time></trkpt>
<trkpt lat="44.2080560" lon="8.3868280"><ele></ele><time>2014-8-28T15:41:10Z</time></trkpt>
<trkpt lat="44.2083960" lon="8.3871621"><ele></ele><time>2014-8-28T15:41:13Z</time></trkpt>
<trkpt lat="44.2085054" lon="8.3870326"><ele></ele><time>2014-8-28T15:41:16Z</time></trkpt>
<trkpt lat="44.2088913" lon="8.3860618"><ele></ele><time>2014-8-28T15:41:19Z</time></trkpt>
<trkpt lat="44.2091424" lon="8.3859252"><ele></ele><time>2014-8-28T15:41:22Z</time></trkpt>
<trkpt lat="44.2092777" lon="8.3859360"><ele></ele><time>2014-8-28T15:41:25Z</time></trkpt>
<trkpt lat="44.2093341" lon="8.3858329"><ele></ele><time>2014-8-28T15:41:28Z</time></trkpt>
<trkpt lat="44.2093654" lon="8.3858852"><ele></ele><time>2014-8-28T15:41:31Z</time></trkpt>
<trkpt lat="44.2092585" lon="8.3855747"><ele></ele><time>2014-8-28T15:41:34Z</time></trkpt>
<trkpt lat="44.2094039" lon="8.3844425"><ele></ele><time>2014-8-28T15:41:37Z</time></trkpt>
<trkpt lat="44.2098776" lon="8.3841681"><ele></ele><time>2014-8-28T15:41:40Z</time></trkpt>
<trkpt lat="44.2101017" lon="8.3841209"><ele></ele><time>2014-8-28T15:41:43Z</time></trkpt>
<trkpt lat="44.2104104" lon="8.3838834"><ele></ele><time>2014-8-28T15:41:46Z</time></trkpt>
<trkpt lat="44.2109685" lon="8.3836702"><ele></ele><time>2014-8-28T15:41:49Z</time></trkpt>
<trkpt lat="44.2112347" lon="8.3834390"><ele></ele><time>2014-8-28T15:41:52Z</time></trkpt>
<trkpt lat="44.2113591" lon="8.3829930"><ele></ele><time>2014-8-28T15:41:55Z</time></trkpt>
<trkpt lat="44.2119269" lon="8.3822018"><ele></ele><time>2014-8-28T15:41:58Z</time></trkpt>
<trkpt lat="44.2120308" lon="8.3814423"><ele></ele><time>2014-8-28T15:42:1Z</time></trkpt>
<trkpt lat="44.2121836" lon="8.3811520"><ele></ele><time>2014-8-28T15:42:4Z</time></trkpt>
<trkpt lat="44.2123530" lon="8.3810168"><ele></ele><time>2014-8-28T15:42:7Z</time></trkpt>
<trkpt lat="44.2125643" lon="8.3810434"><ele></ele><time>2014-8-28T15:42:10Z</time></trkpt>
<trkpt lat="44.2132643" lon="8.3810444"><ele></ele><time>2014-8-28T15:42:13Z</time></trkpt>
<trkpt lat="44.2137217" lon="8.3811372"><ele></ele><time>2014-8-28T15:42:16Z</time></trkpt>
<trkpt lat="44.2142457" lon="8.3807707"><ele></ele><time>2014-8-28T15:42:19Z</time></trkpt>
<trkpt lat="44.2143930" lon="8.3808173"><ele></ele><time>2014-8-28T15:42:22Z</time></trkpt>
<trkpt lat="44.2144315" lon="8.3814039"><ele></ele><time>2014-8-28T15:42:25Z</time></trkpt>
<trkpt lat="44.2145845" lon="8.3814490"><ele></ele><time>2014-8-28T15:42:28Z</time></trkpt>
<trkpt lat="44.2147288" lon="8.3823721"><ele></ele><time>2014-8-28T15:42:31Z</time></trkpt>
<trkpt lat="44.2146614" lon="8.3815464"><ele></ele><time>2014-8-28T15:42:34Z</time></trkpt>
<trkpt lat="44.2145970" lon="8.3813941"><ele></ele><time>2014-8-28T15:42:37Z</time></trkpt>
<trkpt lat="44.2143688" lon="8.3811716"><ele></ele><time>2014-8-28T15:42:40Z</time></trkpt>
<trkpt lat="44.2144195" lon="8.3807811"><ele></ele><time>2014-8-28T15:42:43Z</time></trkpt>
<trkpt lat="44.2145842" lon="8.3802048"><ele></ele><time>2014-8-28T15:42:46Z</time></trkpt>
<trkpt lat="44.2151171" lon="8.3795796"><ele></ele><time>2014-8-28T15:42:49Z</time></trkpt>
<trkpt lat="44.2153762" lon="8.3794501"><ele></ele><time>2014-8-28T15:42:52Z</time></trkpt>
<trkpt lat="44.2155012" lon="8.3791234"><ele></ele><time>2014-8-28T15:42:55Z</time></trkpt>
<trkpt lat="44.2154338" lon="8.3787264"><ele></ele><time>2014-8-28T15:42:58Z</time></trkpt>
<trkpt lat="44.2155311" lon="8.3783364"><ele></ele><time>2014-8-28T15:43:1Z</time></trkpt>
<trkpt lat="44.2153631" lon="8.3777911"><ele></ele><time>2014-8-28T15:43:4Z</time></trkpt>
<trkpt lat="44.2151124" lon="8.3773180"><ele></ele><time>2014-8-28T15:43:7Z</time></trkpt>
<trkpt lat="44.2146982" lon="8.3767676"><ele></ele><time>2014-8-28T15:43:10Z</time></trkpt>
<trkpt lat="44.2148764" lon="8.3766391"><ele></ele><time>2014-8-28T15:43:13Z</time></trkpt>
<trkpt lat="44.2148427" lon="8.3763324"><ele></ele><time>2014-8-28T15:43:16Z</time></trkpt>
<trkpt lat="44.2139687" lon="8.3750210"><ele></ele><time>2014-8-28T15:43:19Z</time></trkpt>
<trkpt lat="44.2139681" lon="8.3750226"><ele></ele><time>2014-8-28T15:43:22Z</time></trkpt>
<trkpt lat="44.2139507" lon="8.3750423"><ele></ele><time>2014-8-28T15:43:25Z</time></trkpt>
<trkpt lat="44.2144108" lon="8.3745448"><ele></ele><time>2014-8-28T15:43:28Z</time></trkpt>
<trkpt lat="44.2144933" lon="8.3742886"><ele></ele><time>2014-8-28T15:43:31Z</time></trkpt>
<trkpt lat="44.2143414" lon="8.3737048"><ele></ele><time>2014-8-28T15:43:34Z</time></trkpt>
<trkpt lat="44.2137793" lon="8.3726393"><ele></ele><time>2014-8-28T15:43:37Z</time></trkpt>
<trkpt lat="44.2149369" lon="8.3721871"><ele></ele><time>2014-8-28T15:43:40Z</time></trkpt>
<trkpt lat="44.2153405" lon="8.3722041"><ele></ele><time>2014-8-28T15:43:43Z</time></trkpt>
<trkpt lat="44.2157818" lon="8.3724817"><ele></ele><time>2014-8-28T15:43:46Z</time></trkpt>
<trkpt lat="44.2162781" lon="8.3732163"><ele></ele><time>2014-8-28T15:43:49Z</time></trkpt>
<trkpt lat="44.2165499" lon="8.3734362"><ele></ele><time>2014-8-28T15:43:52Z</time></trkpt>
<trkpt lat="44.2177529" lon="8.3735127"><ele></ele><time>2014-8-28T15:43:55Z</time></trkpt>
<trkpt lat="44.2181055" lon="8.3736312"><ele></ele><time>2014-8-28T15:43:58Z</time></trkpt>
<trkpt lat="44.2183196" lon="8.3737865"><ele></ele><time>2014-8-28T15:44:1Z</time></trkpt>
<trkpt lat="44.2186089" lon="8.3738494"><ele></ele><time>2014-8-28T15:44:4Z</time></trkpt>
<trkpt lat="44.2199726" lon="8.3728220"><ele></ele><time>2014-8-28T15:44:7Z</time></trkpt>
<trkpt lat="44.2202640" lon="8.3725584"><ele></ele><time>2014-8-28T15:44:10Z</time></trkpt>
<trkpt lat="44.2204689" lon="8.3722860"><ele></ele><time>2014-8-28T15:44:13Z</time></trkpt>
<trkpt lat="44.2209337" lon="8.3710986"><ele></ele><time>2014-8-28T15:44:16Z</time></trkpt>
<trkpt lat="44.2212573" lon="8.3708296"><ele></ele><time>2014-8-28T15:44:19Z</time></trkpt>
<trkpt lat="44.2217471" lon="8.3706379"><ele></ele><time>2014-8-28T15:44:22Z</time></trkpt>
<trkpt lat="44.2221568" lon="8.3708034"><ele></ele><time>2014-8-28T15:44:25Z</time></trkpt>
<trkpt lat="44.2226808" lon="8.3708044"><ele></ele><time>2014-8-28T15:44:28Z</time></trkpt>
<trkpt lat="44.2230985" lon="8.3703765"><ele></ele><time>2014-8-28T15:44:31Z</time></trkpt>
<trkpt lat="44.2237141" lon="8.3700905"><ele></ele><time>2014-8-28T15:44:34Z</time></trkpt>
<trkpt lat="44.2240706" lon="8.3694788"><ele></ele><time>2014-8-28T15:44:37Z</time></trkpt>
<trkpt lat="44.2246787" lon="8.3686997"><ele></ele><time>2014-8-28T15:44:40Z</time></trkpt>
<trkpt lat="44.2253708" lon="8.3681423"><ele></ele><time>2014-8-28T15:44:43Z</time></trkpt>
<trkpt lat="44.2254500" lon="8.3678564"><ele></ele><time>2014-8-28T15:44:46Z</time></trkpt>
<trkpt lat="44.2254531" lon="8.3673467"><ele></ele><time>2014-8-28T15:44:49Z</time></trkpt>
<trkpt lat="44.2255515" lon="8.3669813"><ele></ele><time>2014-8-28T15:44:52Z</time></trkpt>
<trkpt lat="44.2255798" lon="8.3663660"><ele></ele><time>2014-8-28T15:44:55Z</time></trkpt>
<trkpt lat="44.2257981" lon="8.3659750"><ele></ele><time>2014-8-28T15:44:58Z</time></trkpt>
<trkpt lat="44.2266227" lon="8.3652628"><ele></ele><time>2014-8-28T15:45:1Z</time></trkpt>
<trkpt lat="44.2272336" lon="8.3650508"><ele></ele><time>2014-8-28T15:45:4Z</time></trkpt>
<trkpt lat="44.2281833" lon="8.3656694"><ele></ele><time>2014-8-28T15:45:7Z</time></trkpt>
<trkpt lat="44.2283338" lon="8.3654702"><ele></ele><time>2014-8-28T15:45:10Z</time></trkpt>
<trkpt lat="44.2287636" lon="8.3651829"><ele></ele><time>2014-8-28T15:45:13Z</time></trkpt>
<trkpt lat="44.2289961" lon="8.3648929"><ele></ele><time>2014-8-28T15:45:16Z</time></trkpt>
<trkpt lat="44.2291611" lon="8.3633708"><ele></ele><time>2014-8-28T15:45:19Z</time></trkpt>
<trkpt lat="44.2290118" lon="8.3628586"><ele></ele><time>2014-8-28T15:45:22Z</time></trkpt>
<trkpt lat="44.2290076" lon="8.3622965"><ele></ele><time>2014-8-28T15:45:25Z</time></trkpt>
<trkpt lat="44.2291499" lon="8.3623081"><ele></ele><time>2014-8-28T15:45:28Z</time></trkpt>
<trkpt lat="44.2293245" lon="8.3626266"><ele></ele><time>2014-8-28T15:45:31Z</time></trkpt>
<trkpt lat="44.2299420" lon="8.3635865"><ele></ele><time>2014-8-28T15:45:34Z</time></trkpt>
<trkpt lat="44.2301303" lon="8.3637538"><ele></ele><time>2014-8-28T15:45:37Z</time></trkpt>
<trkpt lat="44.2304462" lon="8.3643391"><ele></ele><time>2014-8-28T15:45:40Z</time></trkpt>
<trkpt lat="44.2306034" lon="8.3644234"><ele></ele><time>2014-8-28T15:45:43Z</time></trkpt>
<trkpt lat="44.2312883" lon="8.3645018"><ele></ele><time>2014-8-28T15:45:46Z</time></trkpt>
<trkpt lat="44.2317116" lon="8.3644685"><ele></ele><time>2014-8-28T15:45:49Z</time></trkpt>
<trkpt lat="44.2320609" lon="8.3647445"><ele></ele><time>2014-8-28T15:45:52Z</time></trkpt>
<trkpt lat="44.2324928" lon="8.3649394"><ele></ele><time>2014-8-28T15:45:55Z</time></trkpt>
<trkpt lat="44.2332347" lon="8.3647965"><ele></ele><time>2014-8-28T15:45:58Z</time></trkpt>
<trkpt lat="44.2335720" lon="8.3648902"><ele></ele><time>2014-8-28T15:46:1Z</time></trkpt>
<trkpt lat="44.2338095" lon="8.3649994"><ele></ele><time>2014-8-28T15:46:4Z</time></trkpt>
<trkpt lat="44.2343911" lon="8.3649390"><ele></ele><time>2014-8-28T15:46:7Z</time></trkpt>
<trkpt lat="44.2347812" lon="8.3649627"><ele></ele><time>2014-8-28T15:46:10Z</time></trkpt>
<trkpt lat="44.2350472" lon="8.3648168"><ele></ele><time>2014-8-28T15:46:13Z</time></trkpt>
<trkpt lat="44.2353093" lon="8.3640429"><ele></ele><time>2014-8-28T15:46:16Z</time></trkpt>
<trkpt lat="44.2360204" lon="8.3639776"><ele></ele><time>2014-8-28T15:46:19Z</time></trkpt>
<trkpt lat="44.2362021" lon="8.3637610"><ele></ele><time>2014-8-28T15:46:22Z</time></trkpt>
<trkpt lat="44.2363214" lon="8.3631451"><ele></ele><time>2014-8-28T15:46:25Z</time></trkpt>
<trkpt lat="44.2365017" lon="8.3629783"><ele></ele><time>2014-8-28T15:46:28Z</time></trkpt>
<trkpt lat="44.2369372" lon="8.3630580"><ele></ele><time>2014-8-28T15:46:31Z</time></trkpt>
<trkpt lat="44.2372933" lon="8.3634720"><ele></ele><time>2014-8-28T15:46:34Z</time></trkpt>
<trkpt lat="44.2379853" lon="8.3635605"><ele></ele><time>2014-8-28T15:46:37Z</time></trkpt>
<trkpt lat="44.2381853" lon="8.3629691"><ele></ele><time>2014-8-28T15:46:40Z</time></trkpt>
<trkpt lat="44.2387037" lon="8.3627922"><ele></ele><time>2014-8-28T15:46:43Z</time></trkpt>
<trkpt lat="44.2390967" lon="8.3627452"><ele></ele><time>2014-8-28T15:46:46Z</time></trkpt>
<trkpt lat="44.2393853" lon="8.3625210"><ele></ele><time>2014-8-28T15:46:49Z</time></trkpt>
<trkpt lat="44.2394799" lon="8.3622256"><ele></ele><time>2014-8-28T15:46:52Z</time></trkpt>
<trkpt lat="44.2395373" lon="8.3622803"><ele></ele><time>2014-8-28T15:46:55Z</time></trkpt>
<trkpt lat="44.2395817" lon="8.3621421"><ele></ele><time>2014-8-28T15:46:58Z</time></trkpt>
<trkpt lat="44.2395229" lon="8.3622213"><ele></ele><time>2014-8-28T15:47:1Z</time></trkpt>
<trkpt lat="44.2395515" lon="8.3623085"><ele></ele><time>2014-8-28T15:47:4Z</time></trkpt>
<trkpt lat="44.2396051" lon="8.3621341"><ele></ele><time>2014-8-28T15:47:7Z</time></trkpt>
<trkpt lat="44.2407747" lon="8.3618817"><ele></ele><time>2014-8-28T15:47:10Z</time></trkpt>
<trkpt lat="44.2407012" lon="8.3618770"><ele></ele><time>2014-8-28T15:47:13Z</time></trkpt>
<trkpt lat="44.2403848" lon="8.3621807"><ele></ele><time>2014-8-28T15:47:16Z</time></trkpt>
<trkpt lat="44.2397648" lon="8.3633449"><ele></ele><time>2014-8-28T15:47:19Z</time></trkpt>
<trkpt lat="44.2394673" lon="8.3636994"><ele></ele><time>2014-8-28T15:47:22Z</time></trkpt>
<trkpt lat="44.2391570" lon="8.3642877"><ele></ele><time>2014-8-28T15:47:25Z</time></trkpt>
<trkpt lat="44.2390389" lon="8.3652840"><ele></ele><time>2014-8-28T15:47:28Z</time></trkpt>
<trkpt lat="44.2388636" lon="8.3660474"><ele></ele><time>2014-8-28T15:47:31Z</time></trkpt>
<trkpt lat="44.2388526" lon="8.3663747"><ele></ele><time>2014-8-28T15:47:34Z</time></trkpt>
<trkpt lat="44.2389172" lon="8.3670828"><ele></ele><time>2014-8-28T15:47:37Z</time></trkpt>
<trkpt lat="44.2391254" lon="8.3674838"><ele></ele><time>2014-8-28T15:47:40Z</time></trkpt>
<trkpt lat="44.2390384" lon="8.3676129"><ele></ele><time>2014-8-28T15:47:43Z</time></trkpt>
<trkpt lat="44.2391252" lon="8.3676373"><ele></ele><time>2014-8-28T15:47:46Z</time></trkpt>
<trkpt lat="44.2391687" lon="8.3677418"><ele></ele><time>2014-8-28T15:47:49Z</time></trkpt>
<trkpt lat="44.2391661" lon="8.3680639"><ele></ele><time>2014-8-28T15:47:52Z</time></trkpt>
<trkpt lat="44.2392895" lon="8.3683828"><ele></ele><time>2014-8-28T15:47:55Z</time></trkpt>
<trkpt lat="44.2392182" lon="8.3697434"><ele></ele><time>2014-8-28T15:47:58Z</time></trkpt>
<trkpt lat="44.2388944" lon="8.3700880"><ele></ele><time>2014-8-28T15:48:1Z</time></trkpt>
<trkpt lat="44.2387291" lon="8.3705600"><ele></ele><time>2014-8-28T15:48:4Z</time></trkpt>
<trkpt lat="44.2387754" lon="8.3711021"><ele></ele><time>2014-8-28T15:48:7Z</time></trkpt>
<trkpt lat="44.2387380" lon="8.3712934"><ele></ele><time>2014-8-28T15:48:10Z</time></trkpt>
<trkpt lat="44.2384339" lon="8.3717053"><ele></ele><time>2014-8-28T15:48:13Z</time></trkpt>
<trkpt lat="44.2378748" lon="8.3722662"><ele></ele><time>2014-8-28T15:48:16Z</time></trkpt>
<trkpt lat="44.2376598" lon="8.3734456"><ele></ele><time>2014-8-28T15:48:19Z</time></trkpt>
<trkpt lat="44.2373130" lon="8.3740523"><ele></ele><time>2014-8-28T15:48:22Z</time></trkpt>
<trkpt lat="44.2373839" lon="8.3742326"><ele></ele><time>2014-8-28T15:48:25Z</time></trkpt>
<trkpt lat="44.2376741" lon="8.3745052"><ele></ele><time>2014-8-28T15:48:28Z</time></trkpt>
<trkpt lat="44.2378630" lon="8.3745828"><ele></ele><time>2014-8-28T15:48:31Z</time></trkpt>
<trkpt lat="44.2384406" lon="8.3744449"><ele></ele><time>2014-8-28T15:48:34Z</time></trkpt>
<trkpt lat="44.2389706" lon="8.3747138"><ele></ele><time>2014-8-28T15:48:37Z</time></trkpt>
<trkpt lat="44.2389592" lon="8.3747699"><ele></ele><time>2014-8-28T15:48:40Z</time></trkpt>
<trkpt lat="44.2396725" lon="8.3749216"><ele></ele><time>2014-8-28T15:48:43Z</time></trkpt>
<trkpt lat="44.2402160" lon="8.3748818"><ele></ele><time>2014-8-28T15:48:46Z</time></trkpt>
<trkpt lat="44.2404784" lon="8.3749293"><ele></ele><time>2014-8-28T15:48:49Z</time></trkpt>
<trkpt lat="44.2406241" lon="8.3752209"><ele></ele><time>2014-8-28T15:48:52Z</time></trkpt>
<trkpt lat="44.2406712" lon="8.3758923"><ele></ele><time>2014-8-28T15:48:55Z</time></trkpt>
<trkpt lat="44.2408850" lon="8.3762590"><ele></ele><time>2014-8-28T15:48:58Z</time></trkpt>
<trkpt lat="44.2409409" lon="8.3766071"><ele></ele><time>2014-8-28T15:49:1Z</time></trkpt>
<trkpt lat="44.2412332" lon="8.3773298"><ele></ele><time>2014-8-28T15:49:4Z</time></trkpt>
<trkpt lat="44.2409986" lon="8.3777186"><ele></ele><time>2014-8-28T15:49:7Z</time></trkpt>
<trkpt lat="44.2412032" lon="8.3783181"><ele></ele><time>2014-8-28T15:49:10Z</time></trkpt>
<trkpt lat="44.2412254" lon="8.3787041"><ele></ele><time>2014-8-28T15:49:13Z</time></trkpt>
<trkpt lat="44.2410830" lon="8.3790409"><ele></ele><time>2014-8-28T15:49:16Z</time></trkpt>
<trkpt lat="44.2411815" lon="8.3801985"><ele></ele><time>2014-8-28T15:49:19Z</time></trkpt>
<trkpt lat="44.2414461" lon="8.3804104"><ele></ele><time>2014-8-28T15:49:22Z</time></trkpt>
<trkpt lat="44.2415088" lon="8.3806175"><ele></ele><time>2014-8-28T15:49:25Z</time></trkpt>
<trkpt lat="44.2414011" lon="8.3807056"><ele></ele><time>2014-8-28T15:49:28Z</time></trkpt>
<trkpt lat="44.2414788" lon="8.3809474"><ele></ele><time>2014-8-28T15:49:31Z</time></trkpt>
<trkpt lat="44.2416151" lon="8.3810496"><ele></ele><time>2014-8-28T15:49:34Z</time></trkpt>
<trkpt lat="44.2417061" lon="8.3813496"><ele></ele><time>2014-8-28T15:49:37Z</time></trkpt>
<trkpt lat="44.2418243" lon="8.3822209"><ele></ele><time>2014-8-28T15:49:40Z</time></trkpt>
<trkpt lat="44.2420673" lon="8.3826761"><ele></ele><time>2014-8-28T15:49:43Z</time></trkpt>
<trkpt lat="44.2424346" lon="8.3836890"><ele></ele><time>2014-8-28T15:49:46Z</time></trkpt>
<trkpt lat="44.2423935" lon="8.3840697"><ele></ele><time>2014-8-28T15:49:49Z</time></trkpt>
<trkpt lat="44.2421766" lon="8.3843771"><ele></ele><time>2014-8-28T15:49:52Z</time></trkpt>
<trkpt lat="44.2420677" lon="8.3846580"><ele></ele><time>2014-8-28T15:49:55Z</time></trkpt>
<trkpt lat="44.2421378" lon="8.3850842"><ele></ele><time>2014-8-28T15:49:58Z</time></trkpt>
<trkpt lat="44.2421202" lon="8.3855237"><ele></ele><time>2014-8-28T15:50:1Z</time></trkpt>
<trkpt lat="44.2422084" lon="8.3859377"><ele></ele><time>2014-8-28T15:50:4Z</time></trkpt>
<trkpt lat="44.2421055" lon="8.3867385"><ele></ele><time>2014-8-28T15:50:7Z</time></trkpt>
<trkpt lat="44.2423947" lon="8.3877935"><ele></ele><time>2014-8-28T15:50:10Z</time></trkpt>
<trkpt lat="44.2425778" lon="8.3881768"><ele></ele><time>2014-8-28T15:50:13Z</time></trkpt>
<trkpt lat="44.2429428" lon="8.3886669"><ele></ele><time>2014-8-28T15:50:16Z</time></trkpt>
<trkpt lat="44.2429815" lon="8.3890337"><ele></ele><time>2014-8-28T15:50:19Z</time></trkpt>
<trkpt lat="44.2427599" lon="8.3895999"><ele></ele><time>2014-8-28T15:50:22Z</time></trkpt>
<trkpt lat="44.2424520" lon="8.3900188"><ele></ele><time>2014-8-28T15:50:25Z</time></trkpt>
<trkpt lat="44.2423687" lon="8.3904059"><ele></ele><time>2014-8-28T15:50:28Z</time></trkpt>
<trkpt lat="44.2424862" lon="8.3910056"><ele></ele><time>2014-8-28T15:50:31Z</time></trkpt>
<trkpt lat="44.2427800" lon="8.3918729"><ele></ele><time>2014-8-28T15:50:34Z</time></trkpt>
<trkpt lat="44.2431439" lon="8.3923184"><ele></ele><time>2014-8-28T15:50:37Z</time></trkpt>
<trkpt lat="44.2434672" lon="8.3931910"><ele></ele><time>2014-8-28T15:50:40Z</time></trkpt>
<trkpt lat="44.2435777" lon="8.3942035"><ele></ele><time>2014-8-28T15:50:43Z</time></trkpt>
<trkpt lat="44.2439010" lon="8.3951440"><ele></ele><time>2014-8-28T15:50:46Z</time></trkpt>
<trkpt lat="44.2441015" lon="8.3963235"><ele></ele><time>2014-8-28T15:50:49Z</time></trkpt>
<trkpt lat="44.2441098" lon="8.3965044"><ele></ele><time>2014-8-28T15:50:52Z</time></trkpt>
<trkpt lat="44.2439166" lon="8.3970352"><ele></ele><time>2014-8-28T15:50:55Z</time></trkpt>
<trkpt lat="44.2438627" lon="8.3980637"><ele></ele><time>2014-8-28T15:50:58Z</time></trkpt>
<trkpt lat="44.2436429" lon="8.3987662"><ele></ele><time>2014-8-28T15:51:1Z</time></trkpt>
<trkpt lat="44.2435694" lon="8.3997783"><ele></ele><time>2014-8-28T15:51:4Z</time></trkpt>
<trkpt lat="44.2435875" lon="8.4014342"><ele></ele><time>2014-8-28T15:51:7Z</time></trkpt>
<trkpt lat="44.2437683" lon="8.4021814"><ele></ele><time>2014-8-28T15:51:10Z</time></trkpt>
<trkpt lat="44.2443230" lon="8.4017717"><ele></ele><time>2014-8-28T15:51:13Z</time></trkpt>
<trkpt lat="44.2444795" lon="8.4017114"><ele></ele><time>2014-8-28T15:51:16Z</time></trkpt>
<trkpt lat="44.2447118" lon="8.4019471"><ele></ele><time>2014-8-28T15:51:19Z</time></trkpt>
<trkpt lat="44.2445961" lon="8.4028867"><ele></ele><time>2014-8-28T15:51:22Z</time></trkpt>
<trkpt lat="44.2443696" lon="8.4035036"><ele></ele><time>2014-8-28T15:51:25Z</time></trkpt>
<trkpt lat="44.2444645" lon="8.4036789"><ele></ele><time>2014-8-28T15:51:28Z</time></trkpt>
<trkpt lat="44.2443743" lon="8.4037835"><ele></ele><time>2014-8-28T15:51:31Z</time></trkpt>
<trkpt lat="44.2428668" lon="8.4037835"><ele></ele><time>2014-8-28T15:51:34Z</time></trkpt>
<trkpt lat="44.2420922" lon="8.4036628"><ele></ele><time>2014-8-28T15:51:37Z</time></trkpt>
<trkpt lat="44.2416308" lon="8.4039001"><ele></ele><time>2014-8-28T15:51:40Z</time></trkpt>
<trkpt lat="44.2416961" lon="8.4040097"><ele></ele><time>2014-8-28T15:51:43Z</time></trkpt>
<trkpt lat="44.2421972" lon="8.4040607"><ele></ele><time>2014-8-28T15:51:46Z</time></trkpt>
<trkpt lat="44.2426623" lon="8.4044948"><ele></ele><time>2014-8-28T15:51:49Z</time></trkpt>
<trkpt lat="44.2436901" lon="8.4051961"><ele></ele><time>2014-8-28T15:51:52Z</time></trkpt>
<trkpt lat="44.2442848" lon="8.4057064"><ele></ele><time>2014-8-28T15:51:55Z</time></trkpt>
<trkpt lat="44.2446018" lon="8.4060716"><ele></ele><time>2014-8-28T15:51:58Z</time></trkpt>
<trkpt lat="44.2446912" lon="8.4071054"><ele></ele><time>2014-8-28T15:52:1Z</time></trkpt>
<trkpt lat="44.2449334" lon="8.4077564"><ele></ele><time>2014-8-28T15:52:4Z</time></trkpt>
<trkpt lat="44.2452699" lon="8.4093583"><ele></ele><time>2014-8-28T15:52:7Z</time></trkpt>
<trkpt lat="44.2452834" lon="8.4102332"><ele></ele><time>2014-8-28T15:52:10Z</time></trkpt>
<trkpt lat="44.2451886" lon="8.4115433"><ele></ele><time>2014-8-28T15:52:13Z</time></trkpt>
<trkpt lat="44.2450059" lon="8.4126244"><ele></ele><time>2014-8-28T15:52:16Z</time></trkpt>
<trkpt lat="44.2445581" lon="8.4131301"><ele></ele><time>2014-8-28T15:52:19Z</time></trkpt>
<trkpt lat="44.2439578" lon="8.4133285"><ele></ele><time>2014-8-28T15:52:22Z</time></trkpt>
<trkpt lat="44.2438108" lon="8.4134873"><ele></ele><time>2014-8-28T15:52:25Z</time></trkpt>
<trkpt lat="44.2436756" lon="8.4140660"><ele></ele><time>2014-8-28T15:52:28Z</time></trkpt>
<trkpt lat="44.2436874" lon="8.4146525"><ele></ele><time>2014-8-28T15:52:31Z</time></trkpt>
<trkpt lat="44.2439563" lon="8.4159734"><ele></ele><time>2014-8-28T15:52:34Z</time></trkpt>
<trkpt lat="44.2440173" lon="8.4161044"><ele></ele><time>2014-8-28T15:52:37Z</time></trkpt>
<trkpt lat="44.2442649" lon="8.4160629"><ele></ele><time>2014-8-28T15:52:40Z</time></trkpt>
<trkpt lat="44.2442761" lon="8.4160670"><ele></ele><time>2014-8-28T15:52:43Z</time></trkpt>
<trkpt lat="44.2442787" lon="8.4160684"><ele></ele><time>2014-8-28T15:52:46Z</time></trkpt>
<trkpt lat="44.2441337" lon="8.4163192"><ele></ele><time>2014-8-28T15:52:49Z</time></trkpt>
<trkpt lat="44.2439518" lon="8.4173352"><ele></ele><time>2014-8-28T15:52:52Z</time></trkpt>
<trkpt lat="44.2438343" lon="8.4178866"><ele></ele><time>2014-8-28T15:52:55Z</time></trkpt>
<trkpt lat="44.2436726" lon="8.4182153"><ele></ele><time>2014-8-28T15:52:58Z</time></trkpt>
<trkpt lat="44.2437001" lon="8.4184736"><ele></ele><time>2014-8-28T15:53:1Z</time></trkpt>
<trkpt lat="44.2434534" lon="8.4191596"><ele></ele><time>2014-8-28T15:53:4Z</time></trkpt>
<trkpt lat="44.2433266" lon="8.4196123"><ele></ele><time>2014-8-28T15:53:7Z</time></trkpt>
<trkpt lat="44.2432297" lon="8.4200754"><ele></ele><time>2014-8-28T15:53:10Z</time></trkpt>
<trkpt lat="44.2432343" lon="8.4200708"><ele></ele><time>2014-8-28T15:53:13Z</time></trkpt>
<trkpt lat="44.2432160" lon="8.4200547"><ele></ele><time>2014-8-28T15:53:16Z</time></trkpt>
<trkpt lat="44.2434597" lon="8.4190778"><ele></ele><time>2014-8-28T15:53:19Z</time></trkpt>
<trkpt lat="44.2436695" lon="8.4185773"><ele></ele><time>2014-8-28T15:53:22Z</time></trkpt>
<trkpt lat="44.2437218" lon="8.4181407"><ele></ele><time>2014-8-28T15:53:25Z</time></trkpt>
<trkpt lat="44.2438342" lon="8.4179180"><ele></ele><time>2014-8-28T15:53:28Z</time></trkpt>
<trkpt lat="44.2439398" lon="8.4173708"><ele></ele><time>2014-8-28T15:53:31Z</time></trkpt>
<trkpt lat="44.2442216" lon="8.4161199"><ele></ele><time>2014-8-28T15:53:34Z</time></trkpt>
<trkpt lat="44.2444181" lon="8.4160063"><ele></ele><time>2014-8-28T15:53:37Z</time></trkpt>
<trkpt lat="44.2446742" lon="8.4160805"><ele></ele><time>2014-8-28T15:53:40Z</time></trkpt>
<trkpt lat="44.2450293" lon="8.4163426"><ele></ele><time>2014-8-28T15:53:43Z</time></trkpt>
<trkpt lat="44.2447008" lon="8.4168322"><ele></ele><time>2014-8-28T15:53:46Z</time></trkpt>
<trkpt lat="44.2446676" lon="8.4173826"><ele></ele><time>2014-8-28T15:53:49Z</time></trkpt>
<trkpt lat="44.2447410" lon="8.4188722"><ele></ele><time>2014-8-28T15:53:52Z</time></trkpt>
<trkpt lat="44.2445597" lon="8.4194629"><ele></ele><time>2014-8-28T15:53:55Z</time></trkpt>
<trkpt lat="44.2445287" lon="8.4198004"><ele></ele><time>2014-8-28T15:53:58Z</time></trkpt>
<trkpt lat="44.2448307" lon="8.4203417"><ele></ele><time>2014-8-28T15:54:1Z</time></trkpt>
<trkpt lat="44.2453168" lon="8.4206975"><ele></ele><time>2014-8-28T15:54:4Z</time></trkpt>
<trkpt lat="44.2454607" lon="8.4208793"><ele></ele><time>2014-8-28T15:54:7Z</time></trkpt>
<trkpt lat="44.2455748" lon="8.4214687"><ele></ele><time>2014-8-28T15:54:10Z</time></trkpt>
<trkpt lat="44.2455606" lon="8.4219782"><ele></ele><time>2014-8-28T15:54:13Z</time></trkpt>
<trkpt lat="44.2457110" lon="8.4231356"><ele></ele><time>2014-8-28T15:54:16Z</time></trkpt>
<trkpt lat="44.2451028" lon="8.4234894"><ele></ele><time>2014-8-28T15:54:19Z</time></trkpt>
<trkpt lat="44.2448137" lon="8.4238373"><ele></ele><time>2014-8-28T15:54:22Z</time></trkpt>
<trkpt lat="44.2446898" lon="8.4245949"><ele></ele><time>2014-8-28T15:54:25Z</time></trkpt>
<trkpt lat="44.2446970" lon="8.4256596"><ele></ele><time>2014-8-28T15:54:28Z</time></trkpt>
<trkpt lat="44.2447643" lon="8.4259801"><ele></ele><time>2014-8-28T15:54:31Z</time></trkpt>
<trkpt lat="44.2449804" lon="8.4262815"><ele></ele><time>2014-8-28T15:54:34Z</time></trkpt>
<trkpt lat="44.2451468" lon="8.4269565"><ele></ele><time>2014-8-28T15:54:37Z</time></trkpt>
<trkpt lat="44.2453032" lon="8.4272882"><ele></ele><time>2014-8-28T15:54:40Z</time></trkpt>
<trkpt lat="44.2458135" lon="8.4275872"><ele></ele><time>2014-8-28T15:54:43Z</time></trkpt>
<trkpt lat="44.2460641" lon="8.4278719"><ele></ele><time>2014-8-28T15:54:46Z</time></trkpt>
<trkpt lat="44.2461098" lon="8.4281159"><ele></ele><time>2014-8-28T15:54:49Z</time></trkpt>
<trkpt lat="44.2458985" lon="8.4285453"><ele></ele><time>2014-8-28T15:54:52Z</time></trkpt>
<trkpt lat="44.2460534" lon="8.4287603"><ele></ele><time>2014-8-28T15:54:55Z</time></trkpt>
<trkpt lat="44.2462471" lon="8.4287459"><ele></ele><time>2014-8-28T15:54:58Z</time></trkpt>
<trkpt lat="44.2464558" lon="8.4288464"><ele></ele><time>2014-8-28T15:55:1Z</time></trkpt>
<trkpt lat="44.2463805" lon="8.4289593"><ele></ele><time>2014-8-28T15:55:4Z</time></trkpt>
<trkpt lat="44.2460976" lon="8.4290011"><ele></ele><time>2014-8-28T15:55:7Z</time></trkpt>
<trkpt lat="44.2458946" lon="8.4291513"><ele></ele><time>2014-8-28T15:55:10Z</time></trkpt>
<trkpt lat="44.2454550" lon="8.4297602"><ele></ele><time>2014-8-28T15:55:13Z</time></trkpt>
<trkpt lat="44.2451908" lon="8.4299803"><ele></ele><time>2014-8-28T15:55:16Z</time></trkpt>
<trkpt lat="44.2452245" lon="8.4300372"><ele></ele><time>2014-8-28T15:55:19Z</time></trkpt>
<trkpt lat="44.2450883" lon="8.4299908"><ele></ele><time>2014-8-28T15:55:22Z</time></trkpt>
<trkpt lat="44.2453851" lon="8.4296493"><ele></ele><time>2014-8-28T15:55:25Z</time></trkpt>
<trkpt lat="44.2455463" lon="8.4293038"><ele></ele><time>2014-8-28T15:55:28Z</time></trkpt>
<trkpt lat="44.2455539" lon="8.4290805"><ele></ele><time>2014-8-28T15:55:31Z</time></trkpt>
<trkpt lat="44.2451505" lon="8.4287164"><ele></ele><time>2014-8-28T15:55:34Z</time></trkpt>
<trkpt lat="44.2445542" lon="8.4287671"><ele></ele><time>2014-8-28T15:55:37Z</time></trkpt>
<trkpt lat="44.2441152" lon="8.4286729"><ele></ele><time>2014-8-28T15:55:40Z</time></trkpt>
<trkpt lat="44.2438391" lon="8.4285448"><ele></ele><time>2014-8-28T15:55:43Z</time></trkpt>
<trkpt lat="44.2436079" lon="8.4283090"><ele></ele><time>2014-8-28T15:55:46Z</time></trkpt>
<trkpt lat="44.2433840" lon="8.4275166"><ele></ele><time>2014-8-28T15:55:49Z</time></trkpt>
<trkpt lat="44.2431699" lon="8.4270410"><ele></ele><time>2014-8-28T15:55:52Z</time></trkpt>
<trkpt lat="44.2426987" lon="8.4252333"><ele></ele><time>2014-8-28T15:55:55Z</time></trkpt>
<trkpt lat="44.2424723" lon="8.4252564"><ele></ele><time>2014-8-28T15:55:58Z</time></trkpt>
<trkpt lat="44.2421461" lon="8.4254653"><ele></ele><time>2014-8-28T15:56:1Z</time></trkpt>
<trkpt lat="44.2420302" lon="8.4254462"><ele></ele><time>2014-8-28T15:56:4Z</time></trkpt>
<trkpt lat="44.2418999" lon="8.4256575"><ele></ele><time>2014-8-28T15:56:7Z</time></trkpt>
<trkpt lat="44.2413175" lon="8.4268127"><ele></ele><time>2014-8-28T15:56:10Z</time></trkpt>
<trkpt lat="44.2408815" lon="8.4278745"><ele></ele><time>2014-8-28T15:56:13Z</time></trkpt>
<trkpt lat="44.2403933" lon="8.4282702"><ele></ele><time>2014-8-28T15:56:16Z</time></trkpt>
<trkpt lat="44.2398461" lon="8.4291497"><ele></ele><time>2014-8-28T15:56:19Z</time></trkpt>
<trkpt lat="44.2388612" lon="8.4302932"><ele></ele><time>2014-8-28T15:56:22Z</time></trkpt>
<trkpt lat="44.2384747" lon="8.4305502"><ele></ele><time>2014-8-28T15:56:25Z</time></trkpt>
<trkpt lat="44.2383008" lon="8.4305637"><ele></ele><time>2014-8-28T15:56:28Z</time></trkpt>
<trkpt lat="44.2381395" lon="8.4303880"><ele></ele><time>2014-8-28T15:56:31Z</time></trkpt>
<trkpt lat="44.2379744" lon="8.4300438"><ele></ele><time>2014-8-28T15:56:34Z</time></trkpt>
<trkpt lat="44.2380006" lon="8.4299761"><ele></ele><time>2014-8-28T15:56:37Z</time></trkpt>
<trkpt lat="44.2374652" lon="8.4289236"><ele></ele><time>2014-8-28T15:56:40Z</time></trkpt>
<trkpt lat="44.2372610" lon="8.4276902"><ele></ele><time>2014-8-28T15:56:43Z</time></trkpt>
<trkpt lat="44.2367737" lon="8.4276147"><ele></ele><time>2014-8-28T15:56:46Z</time></trkpt>
<trkpt lat="44.2362013" lon="8.4268737"><ele></ele><time>2014-8-28T15:56:49Z</time></trkpt>
<trkpt lat="44.2354910" lon="8.4262512"><ele></ele><time>2014-8-28T15:56:52Z</time></trkpt>
<trkpt lat="44.2353660" lon="8.4260201"><ele></ele><time>2014-8-28T15:56:55Z</time></trkpt>
<trkpt lat="44.2353678" lon="8.4251064"><ele></ele><time>2014-8-28T15:56:58Z</time></trkpt>
<trkpt lat="44.2350046" lon="8.4249692"><ele></ele><time>2014-8-28T15:57:1Z</time></trkpt>
<trkpt lat="44.2346354" lon="8.4251471"><ele></ele><time>2014-8-28T15:57:4Z</time></trkpt>
<trkpt lat="44.2343718" lon="8.4250576"><ele></ele><time>2014-8-28T15:57:7Z</time></trkpt>
<trkpt lat="44.2338054" lon="8.4240865"><ele></ele><time>2014-8-28T15:57:10Z</time></trkpt>
<trkpt lat="44.2331907" lon="8.4235532"><ele></ele><time>2014-8-28T15:57:13Z</time></trkpt>
<trkpt lat="44.2331971" lon="8.4233498"><ele></ele><time>2014-8-28T15:57:16Z</time></trkpt>
<trkpt lat="44.2330808" lon="8.4231632"><ele></ele><time>2014-8-28T15:57:19Z</time></trkpt>
<trkpt lat="44.2325503" lon="8.4225568"><ele></ele><time>2014-8-28T15:57:22Z</time></trkpt>
<trkpt lat="44.2319629" lon="8.4210906"><ele></ele><time>2014-8-28T15:57:25Z</time></trkpt>
<trkpt lat="44.2316470" lon="8.4205687"><ele></ele><time>2014-8-28T15:57:28Z</time></trkpt>
</trkseg></trk></gpx>